createdAt,value
2019-03-10T00:01:08.648Z,1.00
2019-03-10T00:03:36.987Z,1.20
2019-03-10T00:06:05.359Z,1.30
2019-03-10T00:08:33.663Z,1.72
2019-03-10T00:11:03.644Z,0.85
2019-03-10T00:13:32.079Z,1.45
2019-03-10T00:16:00.420Z,0.45
2019-03-10T00:18:28.714Z,0.80
2019-03-10T00:20:57.045Z,0.72
2019-03-10T00:23:25.317Z,0.98
2019-03-10T00:25:56.230Z,1.32
2019-03-10T00:28:24.666Z,0.68
2019-03-10T00:30:54.669Z,0.53
2019-03-10T00:33:23.046Z,0.75
2019-03-10T00:35:51.338Z,0.40
2019-03-10T00:38:19.781Z,1.02
2019-03-10T00:41:03.675Z,0.65
2019-03-10T00:46:21.426Z,0.50
2019-03-10T00:49:12.838Z,1.00
2019-03-10T00:52:04.096Z,0.95
2019-03-10T00:54:32.480Z,0.65
2019-03-10T00:57:00.783Z,0.70
2019-03-10T00:59:29.151Z,0.35
2019-03-10T01:01:57.475Z,2.27
2019-03-10T01:04:25.767Z,0.60
2019-03-10T01:06:54.114Z,2.80
2019-03-10T01:09:22.531Z,2.20
2019-03-10T01:11:50.869Z,1.92
2019-03-10T01:14:19.345Z,2.12
2019-03-10T01:16:47.684Z,1.25
2019-03-10T01:19:16.590Z,0.78
2019-03-10T01:21:45.773Z,0.93
2019-03-10T01:24:14.149Z,0.88
2019-03-10T01:26:42.820Z,0.45
2019-03-10T01:29:11.062Z,1.17
2019-03-10T01:31:57.284Z,0.68
2019-03-10T01:34:37.822Z,0.90
2019-03-10T01:37:06.125Z,1.12
2019-03-10T01:39:37.243Z,1.30
2019-03-10T01:42:05.640Z,0.55
2019-03-10T01:44:33.890Z,0.98
2019-03-10T01:47:02.131Z,0.68
2019-03-10T01:49:30.460Z,1.45
2019-03-10T01:51:58.834Z,0.80
2019-03-10T01:54:27.182Z,0.70
2019-03-10T01:56:55.459Z,1.65
2019-03-10T01:59:25.892Z,0.75
2019-03-10T02:01:54.247Z,1.67
2019-03-10T02:04:22.499Z,0.50
2019-03-10T02:06:50.825Z,0.85
2019-03-10T02:09:19.102Z,0.50
2019-03-10T02:11:47.484Z,0.40
2019-03-10T02:14:15.840Z,2.55
2019-03-10T02:16:44.127Z,0.85
2019-03-10T02:19:12.403Z,0.75
2019-03-10T02:21:40.688Z,1.90
2019-03-10T02:24:08.963Z,0.45
2019-03-10T02:26:37.290Z,0.60
2019-03-10T02:29:05.674Z,0.80
2019-03-10T02:31:33.973Z,0.70
2019-03-10T02:34:02.279Z,0.40
2019-03-10T02:36:30.519Z,3.40
2019-03-10T02:38:58.848Z,0.65
2019-03-10T02:41:27.171Z,0.50
2019-03-10T02:43:55.486Z,0.75
2019-03-10T02:46:23.740Z,0.82
2019-03-10T02:48:52.040Z,0.37
2019-03-10T02:51:20.315Z,0.53
2019-03-10T02:53:48.574Z,0.50
2019-03-10T02:56:16.870Z,0.70
2019-03-10T02:58:45.166Z,1.47
2019-03-10T03:01:13.440Z,0.82
2019-03-10T03:03:41.698Z,0.57
2019-03-10T03:06:10.004Z,1.52
2019-03-10T03:08:38.277Z,1.05
2019-03-10T03:11:06.588Z,0.80
2019-03-10T03:13:34.896Z,1.98
2019-03-10T03:16:03.235Z,0.50
2019-03-10T03:18:31.531Z,1.55
2019-03-10T03:20:59.887Z,0.55
2019-03-10T03:23:28.220Z,0.90
2019-03-10T03:25:56.576Z,1.75
2019-03-10T03:28:24.916Z,0.57
2019-03-10T03:30:53.205Z,0.85
2019-03-10T03:33:21.615Z,1.35
2019-03-10T03:35:51.950Z,0.20
2019-03-10T03:38:41.738Z,0.30
2019-03-10T03:41:12.755Z,0.20
2019-03-10T03:43:41.095Z,0.82
2019-03-10T03:46:09.393Z,0.23
2019-03-10T03:48:37.673Z,1.00
2019-03-10T03:51:06.070Z,0.50
2019-03-10T03:53:34.316Z,0.40
2019-03-10T03:56:02.680Z,0.55
2019-03-10T03:58:30.927Z,0.37
2019-03-10T04:01:08.350Z,2.55
2019-03-10T04:03:36.670Z,2.75
2019-03-10T04:06:05.009Z,1.45
2019-03-10T04:08:33.286Z,0.37
2019-03-10T04:11:01.636Z,2.35
2019-03-10T04:13:29.941Z,1.20
2019-03-10T04:15:58.273Z,0.68
2019-03-10T04:18:26.649Z,0.30
2019-03-10T04:20:55.010Z,0.35
2019-03-10T04:23:23.330Z,0.40
2019-03-10T04:25:51.704Z,0.30
2019-03-10T04:28:20.058Z,0.30
2019-03-10T04:30:48.346Z,1.82
2019-03-10T04:33:16.666Z,0.57
2019-03-10T04:35:44.929Z,1.00
2019-03-10T04:38:13.208Z,0.35
2019-03-10T04:40:41.600Z,0.20
2019-03-10T04:43:11.000Z,0.50
2019-03-10T04:45:39.282Z,2.10
2019-03-10T04:48:07.536Z,1.75
2019-03-10T04:50:35.831Z,1.75
2019-03-10T04:53:04.122Z,1.25
2019-03-10T04:55:52.302Z,0.53
2019-03-10T04:58:22.231Z,1.50
2019-03-10T05:00:52.115Z,3.90
2019-03-10T05:03:20.371Z,0.45
2019-03-10T05:05:48.612Z,1.60
2019-03-10T05:08:16.918Z,2.37
2019-03-10T05:10:45.201Z,2.17
2019-03-10T05:13:13.630Z,1.32
2019-03-10T05:15:41.942Z,1.92
2019-03-10T05:18:10.236Z,1.87
2019-03-10T05:20:38.556Z,0.88
2019-03-10T05:23:26.817Z,0.93
2019-03-10T05:25:55.779Z,0.98
2019-03-10T05:28:24.022Z,1.70
2019-03-10T05:30:52.466Z,1.27
2019-03-10T05:33:20.816Z,1.85
2019-03-10T05:35:49.057Z,1.07
2019-03-10T05:38:17.441Z,0.80
2019-03-10T05:40:45.763Z,0.60
2019-03-10T05:43:14.083Z,1.17
2019-03-10T05:45:42.336Z,0.57
2019-03-10T05:48:10.684Z,1.30
2019-03-10T05:50:38.990Z,0.82
2019-03-10T05:53:07.251Z,0.70
2019-03-10T05:55:35.592Z,1.85
2019-03-10T05:58:03.913Z,1.75
2019-03-10T06:00:42.249Z,1.15
2019-03-10T06:03:02.264Z,0.62
2019-03-10T06:05:30.621Z,1.15
2019-03-10T06:07:58.986Z,3.27
2019-03-10T06:10:28.393Z,1.05
2019-03-10T06:12:56.725Z,2.62
2019-03-10T06:15:24.998Z,0.50
2019-03-10T06:17:53.335Z,1.22
2019-03-10T06:20:21.756Z,1.72
2019-03-10T06:22:50.234Z,1.20
2019-03-10T06:25:20.242Z,1.52
2019-03-10T06:27:48.640Z,3.25
2019-03-10T06:30:16.994Z,1.10
2019-03-10T06:32:45.350Z,0.90
2019-03-10T06:35:13.599Z,1.57
2019-03-10T06:37:41.834Z,1.17
2019-03-10T06:40:10.122Z,0.40
2019-03-10T06:42:38.412Z,2.98
2019-03-10T06:45:07.176Z,1.07
2019-03-10T06:47:35.457Z,0.72
2019-03-10T06:50:05.761Z,3.12
2019-03-10T06:52:34.065Z,1.92
2019-03-10T06:55:02.327Z,1.22
2019-03-10T06:57:30.626Z,1.62
2019-03-10T06:59:58.985Z,1.12
2019-03-10T07:02:27.263Z,2.22
2019-03-10T07:04:55.534Z,1.12
2019-03-10T07:07:23.841Z,7.05
2019-03-10T07:09:52.094Z,4.25
2019-03-10T07:12:20.353Z,2.65
2019-03-10T07:14:48.610Z,3.40
2019-03-10T07:17:16.826Z,2.35
2019-03-10T07:19:45.131Z,1.80
2019-03-10T07:22:13.906Z,1.22
2019-03-10T07:24:42.173Z,1.07
2019-03-10T07:27:10.421Z,0.78
2019-03-10T07:29:40.320Z,1.40
2019-03-10T07:32:18.906Z,1.75
2019-03-10T07:34:48.806Z,0.42
2019-03-10T07:37:20.339Z,2.33
2019-03-10T07:40:06.631Z,0.65
2019-03-10T07:42:39.483Z,0.30
2019-03-10T07:45:16.398Z,0.50
2019-03-10T07:47:46.351Z,8.15
2019-03-10T07:50:16.401Z,9.38
2019-03-10T07:52:46.306Z,2.95
2019-03-10T07:55:19.191Z,10.05
2019-03-10T07:57:51.563Z,5.33
2019-03-10T08:00:21.466Z,1.25
2019-03-10T08:03:06.126Z,2.22
2019-03-10T08:05:45.261Z,0.65
2019-03-10T08:08:15.167Z,0.40
2019-03-10T08:10:45.148Z,0.45
2019-03-10T08:13:30.092Z,0.30
2019-03-10T08:16:05.744Z,0.40
2019-03-10T08:18:50.716Z,0.30
2019-03-10T08:21:37.847Z,0.23
2019-03-10T08:24:03.320Z,0.17
2019-03-10T08:26:39.197Z,0.10
2019-03-10T08:29:27.530Z,0.20
2019-03-10T08:34:58.247Z,0.28
2019-03-10T08:40:35.972Z,0.95
2019-03-10T08:43:09.094Z,0.15
2019-03-10T08:45:39.124Z,0.40
2019-03-10T08:48:11.905Z,0.33
2019-03-10T08:50:41.926Z,0.63
2019-03-10T08:53:26.791Z,0.55
2019-03-10T08:55:56.727Z,0.28
2019-03-10T08:58:35.918Z,0.28
2019-03-10T09:01:05.879Z,0.28
2019-03-10T09:03:45.004Z,1.42
2019-03-10T09:06:17.825Z,0.57
2019-03-10T09:09:07.268Z,1.13
2019-03-10T09:11:37.182Z,0.20
2019-03-10T09:14:16.076Z,0.57
2019-03-10T09:16:54.924Z,0.20
2019-03-10T09:19:27.683Z,0.20
2019-03-10T09:22:00.090Z,1.42
2019-03-10T09:24:35.314Z,1.80
2019-03-10T09:27:11.061Z,0.20
2019-03-10T09:29:44.072Z,1.15
2019-03-10T09:32:23.089Z,0.23
2019-03-10T09:34:59.132Z,0.53
2019-03-10T09:37:29.001Z,0.80
2019-03-10T09:40:17.215Z,0.75
2019-03-10T09:42:47.100Z,0.40
2019-03-10T09:45:25.915Z,0.30
2019-03-10T09:48:12.123Z,0.65
2019-03-10T09:50:50.937Z,0.30
2019-03-10T09:53:38.901Z,0.95
2019-03-10T09:56:14.449Z,0.88
2019-03-10T09:58:44.296Z,1.82
2019-03-10T10:01:31.939Z,3.05
2019-03-10T10:04:04.608Z,0.40
2019-03-10T10:06:37.269Z,0.30
2019-03-10T10:09:08.109Z,10.05
2019-03-10T10:11:50.065Z,1.17
2019-03-10T10:14:22.890Z,0.75
2019-03-10T10:16:52.753Z,0.30
2019-03-10T10:19:38.768Z,1.25
2019-03-10T10:22:17.111Z,0.30
2019-03-10T10:24:47.071Z,0.95
2019-03-10T10:27:29.009Z,0.80
2019-03-10T10:30:01.912Z,0.78
2019-03-10T10:32:37.545Z,3.10
2019-03-10T10:35:26.158Z,1.80
2019-03-10T10:38:18.534Z,0.80
2019-03-10T10:40:58.633Z,2.95
2019-03-10T10:43:28.485Z,0.50
2019-03-10T10:45:58.371Z,0.30
2019-03-10T10:48:30.921Z,0.65
2019-03-10T10:51:00.797Z,9.93
2019-03-10T10:53:36.584Z,1.10
2019-03-10T10:56:15.736Z,2.08
2019-03-10T10:58:51.899Z,0.82
2019-03-10T11:01:24.931Z,1.55
2019-03-10T11:03:54.955Z,0.90
2019-03-10T11:06:24.881Z,3.25
2019-03-10T11:08:54.802Z,0.45
2019-03-10T11:11:41.968Z,4.55
2019-03-10T11:14:18.027Z,1.12
2019-03-10T11:17:06.160Z,0.75
2019-03-10T11:19:39.131Z,0.75
2019-03-10T11:22:11.775Z,1.32
2019-03-10T11:24:41.685Z,0.30
2019-03-10T11:27:17.371Z,0.75
2019-03-10T11:29:50.215Z,1.75
2019-03-10T11:32:32.264Z,0.30
2019-03-10T11:35:07.787Z,0.35
2019-03-10T11:37:43.466Z,2.72
2019-03-10T11:40:13.339Z,0.53
2019-03-10T11:42:44.902Z,0.40
2019-03-10T11:45:32.826Z,0.75
2019-03-10T11:48:11.535Z,0.88
2019-03-10T11:50:47.507Z,1.37
2019-03-10T11:53:25.469Z,1.62
2019-03-10T11:56:12.772Z,0.85
2019-03-10T11:58:45.659Z,0.50
2019-03-10T12:01:15.602Z,0.70
2019-03-10T12:03:49.040Z,0.10
2019-03-10T12:06:24.750Z,1.02
2019-03-10T12:08:57.590Z,1.17
2019-03-10T12:11:25.807Z,1.17
2019-03-10T12:13:54.291Z,1.20
2019-03-10T12:16:22.600Z,0.70
2019-03-10T12:18:50.919Z,0.40
2019-03-10T12:21:19.158Z,1.75
2019-03-10T12:23:47.419Z,0.60
2019-03-10T12:26:15.787Z,0.30
2019-03-10T12:28:44.035Z,0.68
2019-03-10T12:31:12.297Z,2.17
2019-03-10T12:33:40.530Z,1.27
2019-03-10T12:36:08.834Z,2.15
2019-03-10T12:38:37.066Z,0.95
2019-03-10T12:41:05.317Z,0.75
2019-03-10T12:43:33.588Z,10.15
2019-03-10T12:46:01.871Z,13.90
2019-03-10T12:48:30.106Z,2.67
2019-03-10T12:50:58.448Z,1.57
2019-03-10T12:53:26.709Z,1.87
2019-03-10T12:55:55.034Z,1.02
2019-03-10T12:58:23.278Z,0.78
2019-03-10T13:00:51.524Z,0.68
2019-03-10T13:03:19.786Z,0.50
2019-03-10T13:05:48.027Z,0.75
2019-03-10T13:08:16.267Z,1.70
2019-03-10T13:10:44.509Z,0.45
2019-03-10T13:13:12.762Z,0.20
2019-03-10T13:15:41.007Z,0.40
2019-03-10T13:18:09.247Z,0.65
2019-03-10T13:20:37.685Z,1.50
2019-03-10T13:23:05.994Z,0.30
2019-03-10T13:25:34.294Z,0.72
2019-03-10T13:28:03.143Z,0.47
2019-03-10T13:30:31.451Z,0.30
2019-03-10T13:32:59.701Z,0.50
2019-03-10T13:35:27.926Z,2.22
2019-03-10T13:37:56.141Z,0.42
2019-03-10T13:40:24.370Z,0.57
2019-03-10T13:42:52.620Z,0.40
2019-03-10T13:45:20.829Z,1.20
2019-03-10T13:47:49.063Z,0.68
2019-03-10T13:50:17.320Z,0.78
2019-03-10T13:52:45.551Z,1.85
2019-03-10T13:55:13.770Z,0.37
2019-03-10T13:57:42.032Z,0.20
2019-03-10T14:00:20.010Z,0.40
2019-03-10T14:02:51.398Z,0.40
2019-03-10T14:05:19.213Z,0.33
2019-03-10T14:07:47.434Z,9.23
2019-03-10T14:10:15.683Z,1.85
2019-03-10T14:12:43.908Z,0.65
2019-03-10T14:15:13.497Z,2.27
2019-03-10T14:17:41.757Z,2.58
2019-03-10T14:20:14.086Z,0.82
2019-03-10T14:22:42.331Z,0.50
2019-03-10T14:25:11.809Z,0.90
2019-03-10T14:27:40.038Z,0.30
2019-03-10T14:30:11.499Z,0.30
2019-03-10T14:32:39.774Z,1.10
2019-03-10T14:35:09.750Z,1.05
2019-03-10T14:37:37.955Z,0.30
2019-03-10T14:40:11.618Z,0.20
2019-03-10T14:42:39.848Z,1.32
2019-03-10T14:45:11.337Z,0.30
2019-03-10T14:47:39.604Z,0.20
2019-03-10T14:50:10.395Z,0.60
2019-03-10T14:52:38.618Z,1.27
2019-03-10T14:55:14.351Z,0.20
2019-03-10T14:57:42.581Z,1.70
2019-03-10T15:00:15.583Z,0.68
2019-03-10T15:02:43.823Z,0.80
2019-03-10T15:05:12.067Z,0.78
2019-03-10T15:07:40.273Z,0.80
2019-03-10T15:10:19.089Z,1.77
2019-03-10T15:12:47.465Z,1.72
2019-03-10T15:15:22.463Z,3.15
2019-03-10T15:17:46.662Z,1.22
2019-03-10T15:20:15.973Z,0.42
2019-03-10T15:22:45.906Z,4.25
2019-03-10T15:25:16.624Z,3.27
2019-03-10T15:27:49.507Z,1.50
2019-03-10T15:30:22.933Z,1.10
2019-03-10T15:32:50.909Z,2.67
2019-03-10T15:35:19.152Z,0.30
2019-03-10T15:37:47.426Z,0.75
2019-03-10T15:40:17.731Z,1.15
2019-03-10T15:42:46.003Z,0.50
2019-03-10T15:45:16.439Z,0.60
2019-03-10T15:47:44.696Z,1.32
2019-03-10T15:50:27.137Z,0.80
2019-03-10T15:52:55.353Z,1.80
2019-03-10T15:55:23.594Z,1.00
2019-03-10T15:57:51.808Z,1.27
2019-03-10T16:00:24.476Z,0.50
2019-03-10T16:02:52.693Z,0.72
2019-03-10T16:05:20.925Z,0.45
2019-03-10T16:07:49.178Z,0.75
2019-03-10T16:10:17.382Z,2.30
2019-03-10T16:12:45.646Z,1.82
2019-03-10T16:15:18.846Z,0.88
2019-03-10T16:17:47.085Z,1.05
2019-03-10T16:20:15.420Z,0.80
2019-03-10T16:22:43.646Z,2.15
2019-03-10T16:25:17.030Z,0.78
2019-03-10T16:27:45.279Z,2.85
2019-03-10T16:30:25.013Z,1.10
2019-03-10T16:32:53.237Z,0.50
2019-03-10T16:35:22.491Z,1.20
2019-03-10T16:37:50.875Z,1.25
2019-03-10T16:40:21.086Z,2.95
2019-03-10T16:42:49.439Z,1.12
2019-03-10T16:45:22.676Z,1.37
2019-03-10T16:47:50.989Z,1.62
2019-03-10T16:50:20.256Z,1.10
2019-03-10T16:52:48.536Z,1.12
2019-03-10T16:55:16.778Z,7.53
2019-03-10T16:57:45.072Z,1.92
2019-03-10T17:00:13.330Z,2.90
2019-03-10T17:02:43.250Z,1.37
2019-03-10T17:05:15.705Z,1.87
2019-03-10T17:07:44.228Z,3.25
2019-03-10T17:10:23.465Z,1.75
2019-03-10T17:12:51.702Z,1.02
2019-03-10T17:15:23.671Z,1.95
2019-03-10T17:17:51.933Z,1.60
2019-03-10T17:20:20.200Z,3.40
2019-03-10T17:22:48.542Z,0.72
2019-03-10T17:25:18.790Z,3.30
2019-03-10T17:27:47.021Z,2.30
2019-03-10T17:30:19.687Z,1.17
2019-03-10T17:32:48.805Z,2.58
2019-03-10T17:35:17.562Z,3.72
2019-03-10T17:37:48.234Z,2.75
2019-03-10T17:40:22.708Z,3.65
2019-03-10T17:42:50.940Z,1.90
2019-03-10T17:45:20.027Z,5.10
2019-03-10T17:47:48.257Z,4.62
2019-03-10T17:50:17.546Z,2.35
2019-03-10T17:52:45.893Z,12.47
2019-03-10T17:55:24.190Z,5.28
2019-03-10T17:57:52.393Z,2.02
2019-03-10T18:00:22.884Z,2.77
2019-03-10T18:02:53.979Z,4.80
2019-03-10T18:05:22.205Z,1.32
2019-03-10T18:07:50.507Z,5.12
2019-03-10T18:10:18.793Z,2.15
2019-03-10T18:12:47.072Z,1.55
2019-03-10T18:15:16.770Z,2.70
2019-03-10T18:17:46.752Z,5.78
2019-03-10T18:20:23.048Z,3.70
2019-03-10T18:22:51.362Z,3.50
2019-03-10T18:25:19.649Z,5.00
2019-03-10T18:27:47.959Z,4.10
2019-03-10T18:30:24.899Z,3.52
2019-03-10T18:32:54.134Z,5.00
2019-03-10T18:35:22.410Z,2.40
2019-03-10T18:37:50.734Z,3.45
2019-03-10T18:40:20.708Z,3.75
2019-03-10T18:42:49.037Z,3.40
2019-03-10T18:45:18.312Z,5.28
2019-03-10T18:47:46.600Z,4.78
2019-03-10T18:50:19.238Z,4.25
2019-03-10T18:52:47.626Z,8.85
2019-03-10T18:55:19.222Z,5.58
2019-03-10T18:57:47.634Z,5.80
2019-03-10T19:00:30.187Z,7.22
2019-03-10T19:03:00.118Z,9.63
2019-03-10T19:05:30.051Z,7.17
2019-03-10T19:07:58.290Z,7.90
2019-03-10T19:10:26.661Z,6.83
2019-03-10T19:12:54.892Z,6.03
2019-03-10T19:15:25.498Z,4.00
2019-03-10T19:17:53.779Z,8.78
2019-03-10T19:20:22.088Z,5.60
2019-03-10T19:22:50.488Z,3.70
2019-03-10T19:25:18.859Z,8.75
2019-03-10T19:27:47.220Z,3.00
2019-03-10T19:30:22.066Z,3.60
2019-03-10T19:32:51.552Z,5.15
2019-03-10T19:35:19.907Z,4.67
2019-03-10T19:37:48.201Z,7.17
2019-03-10T19:40:18.675Z,6.10
2019-03-10T19:42:46.996Z,4.97
2019-03-10T19:45:27.855Z,6.50
2019-03-10T19:48:06.147Z,6.90
2019-03-10T19:50:45.471Z,6.47
2019-03-10T19:53:23.626Z,9.38
2019-03-10T19:55:51.932Z,4.12
2019-03-10T19:58:23.562Z,9.08
2019-03-10T20:00:53.527Z,6.00
2019-03-10T20:03:31.415Z,5.05
2019-03-10T20:06:03.130Z,7.53
2019-03-10T20:08:31.353Z,6.00
2019-03-10T20:10:59.667Z,7.42
2019-03-10T20:13:28.060Z,5.10
2019-03-10T20:16:00.137Z,6.08
2019-03-10T20:18:32.635Z,5.08
2019-03-10T20:21:03.837Z,4.92
2019-03-10T20:23:46.130Z,9.60
2019-03-10T20:26:14.582Z,9.43
2019-03-10T20:28:53.024Z,7.42
2019-03-10T20:31:27.414Z,7.35
2019-03-10T20:33:52.518Z,7.33
2019-03-10T20:36:33.680Z,9.33
2019-03-10T20:39:08.198Z,12.28
2019-03-10T20:41:49.022Z,8.45
2019-03-10T20:44:17.394Z,8.43
2019-03-10T20:46:45.814Z,8.68
2019-03-10T20:49:15.982Z,10.63
2019-03-10T20:51:46.931Z,10.85
2019-03-10T20:54:26.489Z,8.83
2019-03-10T20:57:02.209Z,10.90
2019-03-10T20:59:45.908Z,9.13
2019-03-10T21:02:23.136Z,12.18
2019-03-10T21:04:51.947Z,14.50
2019-03-10T21:07:27.701Z,9.28
2019-03-10T21:09:59.129Z,10.55
2019-03-10T21:12:39.463Z,9.40
2019-03-10T21:15:11.981Z,7.37
2019-03-10T21:17:41.303Z,16.52
2019-03-10T21:20:22.808Z,8.55
2019-03-10T21:22:51.258Z,8.28
2019-03-10T21:25:24.719Z,7.62
2019-03-10T21:27:52.996Z,6.53
2019-03-10T21:30:26.709Z,5.60
2019-03-10T21:32:55.028Z,8.23
2019-03-10T21:35:23.366Z,4.67
2019-03-10T21:37:51.721Z,7.78
2019-03-10T21:40:30.814Z,5.95
2019-03-10T21:42:59.130Z,5.53
2019-03-10T21:45:27.456Z,4.75
2019-03-10T21:47:55.811Z,3.90
2019-03-10T21:50:26.969Z,4.30
2019-03-10T21:52:55.338Z,3.22
2019-03-10T21:55:23.738Z,4.10
2019-03-10T21:57:52.061Z,4.97
2019-03-10T22:00:20.781Z,6.33
2019-03-10T22:02:49.154Z,4.65
2019-03-10T22:05:17.867Z,4.83
2019-03-10T22:07:46.294Z,7.60
2019-03-10T22:10:26.119Z,3.10
2019-03-10T22:12:47.904Z,5.20
2019-03-10T22:15:22.789Z,4.90
2019-03-10T22:17:51.105Z,6.42
2019-03-10T22:20:20.131Z,5.22
2019-03-10T22:22:49.799Z,6.00
2019-03-10T22:25:18.588Z,4.78
2019-03-10T22:27:46.929Z,9.13
2019-03-10T22:30:19.216Z,10.00
2019-03-10T22:32:47.566Z,4.95
2019-03-10T22:35:15.796Z,6.80
2019-03-10T22:37:44.099Z,5.97
2019-03-10T22:40:16.427Z,5.33
2019-03-10T22:42:44.680Z,6.37
2019-03-10T22:45:15.415Z,6.45
2019-03-10T22:47:44.709Z,4.45
2019-03-10T22:50:14.033Z,6.05
2019-03-10T22:52:42.352Z,6.12
2019-03-10T22:55:11.681Z,5.65
2019-03-10T22:57:40.022Z,6.12
2019-03-10T23:00:13.906Z,6.20
2019-03-10T23:02:42.201Z,9.13
2019-03-10T23:05:10.568Z,7.67
2019-03-10T23:07:38.950Z,7.97
2019-03-10T23:10:10.158Z,9.40
2019-03-10T23:12:38.591Z,8.55
2019-03-10T23:15:08.812Z,8.30
2019-03-10T23:17:38.737Z,5.42
2019-03-10T23:20:10.354Z,5.85
2019-03-10T23:22:38.636Z,4.58
2019-03-10T23:25:06.898Z,9.45
2019-03-10T23:27:35.222Z,7.25
2019-03-10T23:30:03.598Z,8.98
2019-03-10T23:32:31.903Z,6.47
2019-03-10T23:35:00.321Z,10.68
2019-03-10T23:37:28.662Z,8.98
2019-03-10T23:39:57.028Z,7.08
2019-03-10T23:42:26.998Z,6.37
2019-03-10T23:44:56.890Z,4.83
2019-03-10T23:47:25.530Z,4.65
2019-03-10T23:49:53.812Z,9.45
2019-03-10T23:52:22.095Z,6.00
2019-03-10T23:54:50.488Z,7.17
2019-03-10T23:57:18.849Z,8.58
2019-03-10T23:59:47.165Z,7.50
